createdAt,value
2018-03-11T00:01:08.040Z,28.53
2018-03-11T00:03:35.084Z,28.37
2018-03-11T00:06:02.132Z,25.33
2018-03-11T00:08:29.187Z,24.40
2018-03-11T00:10:56.844Z,27.60
2018-03-11T00:13:24.302Z,26.60
2018-03-11T00:15:51.353Z,28.83
2018-03-11T00:18:18.911Z,24.40
2018-03-11T00:20:46.676Z,26.73
2018-03-11T00:23:13.724Z,32.10
2018-03-11T00:25:40.779Z,35.43
2018-03-11T00:28:07.826Z,25.63
2018-03-11T00:30:36.230Z,25.30
2018-03-11T00:33:03.768Z,28.57
2018-03-11T00:35:30.811Z,27.53
2018-03-11T00:37:57.861Z,25.17
2018-03-11T00:40:24.853Z,25.30
2018-03-11T00:42:51.957Z,25.83
2018-03-11T00:45:19.004Z,25.00
2018-03-11T00:47:46.673Z,27.30
2018-03-11T00:50:13.717Z,28.83
2018-03-11T00:52:40.764Z,26.40
2018-03-11T00:55:08.938Z,26.77
2018-03-11T00:57:35.892Z,26.40
2018-03-11T01:00:02.936Z,21.73
2018-03-11T01:02:31.115Z,24.40
2018-03-11T01:04:59.284Z,24.57
2018-03-11T01:07:26.337Z,27.33
2018-03-11T01:09:54.303Z,23.63
2018-03-11T01:12:21.351Z,27.50
2018-03-11T01:14:48.299Z,26.50
2018-03-11T01:17:15.345Z,26.97
2018-03-11T01:19:42.856Z,28.43
2018-03-11T01:22:09.857Z,28.37
2018-03-11T01:24:38.028Z,23.03
2018-03-11T01:27:05.082Z,27.83
2018-03-11T01:29:32.128Z,25.83
2018-03-11T01:31:59.186Z,25.43
2018-03-11T01:34:26.229Z,24.03
2018-03-11T01:36:53.894Z,25.80
2018-03-11T01:39:20.932Z,27.13
2018-03-11T01:41:47.988Z,28.80
2018-03-11T01:44:15.031Z,27.73
2018-03-11T01:46:42.085Z,28.77
2018-03-11T01:49:09.132Z,30.87
2018-03-11T01:51:36.182Z,28.83
2018-03-11T01:54:03.224Z,26.03
2018-03-11T01:56:30.584Z,25.80
2018-03-11T01:58:57.629Z,28.87
2018-03-11T02:01:25.598Z,28.63
2018-03-11T02:03:52.852Z,25.77
2018-03-11T02:06:36.511Z,28.90
2018-03-11T02:09:21.009Z,29.47
2018-03-11T02:11:53.925Z,24.90
2018-03-11T02:14:22.520Z,27.27
2018-03-11T02:16:49.572Z,27.17
2018-03-11T02:19:17.952Z,27.87
2018-03-11T02:21:47.115Z,30.67
2018-03-11T02:24:17.220Z,24.77
2018-03-11T02:26:45.953Z,26.80
2018-03-11T02:29:13.820Z,27.60
2018-03-11T02:31:40.869Z,25.87
2018-03-11T02:34:07.933Z,26.27
2018-03-11T02:36:37.118Z,26.00
2018-03-11T02:39:09.602Z,28.10
2018-03-11T02:41:41.305Z,27.97
2018-03-11T02:44:10.044Z,27.43
2018-03-11T02:46:42.264Z,29.33
2018-03-11T02:49:09.265Z,26.50
2018-03-11T02:51:37.429Z,29.00
2018-03-11T02:54:12.569Z,22.53
2018-03-11T02:56:44.314Z,20.53
2018-03-11T02:59:13.226Z,23.33
2018-03-11T03:01:43.307Z,23.63
2018-03-11T03:04:14.801Z,20.20
2018-03-11T03:06:41.746Z,23.47
2018-03-11T03:09:11.340Z,22.73
2018-03-11T03:11:44.847Z,21.57
2018-03-11T03:14:22.028Z,23.53
2018-03-11T03:16:57.382Z,20.17
2018-03-11T03:19:27.913Z,22.03
2018-03-11T03:22:04.297Z,26.50
2018-03-11T03:24:35.421Z,23.27
2018-03-11T03:27:04.115Z,22.70
2018-03-11T03:29:31.975Z,22.93
2018-03-11T03:32:04.586Z,24.53
2018-03-11T03:34:55.555Z,22.13
2018-03-11T03:37:23.483Z,24.63
2018-03-11T03:39:53.811Z,28.70
2018-03-11T03:42:21.515Z,26.07
2018-03-11T03:44:50.771Z,21.33
2018-03-11T03:47:19.003Z,21.83
2018-03-11T03:49:46.199Z,19.83
2018-03-11T03:52:13.452Z,22.80
2018-03-11T03:54:40.503Z,21.67
2018-03-11T03:57:09.186Z,22.23
2018-03-11T03:59:37.670Z,20.90
2018-03-11T04:02:06.355Z,27.83
2018-03-11T04:04:35.154Z,25.83
2018-03-11T04:07:03.423Z,23.23
2018-03-11T04:09:32.315Z,21.97
2018-03-11T04:12:01.719Z,25.43
2018-03-11T04:14:30.823Z,27.23
2018-03-11T04:16:59.235Z,23.47
2018-03-11T04:19:26.757Z,26.53
2018-03-11T04:21:55.752Z,27.33
2018-03-11T04:24:22.742Z,28.20
2018-03-11T04:26:50.963Z,26.90
2018-03-11T04:29:18.227Z,23.90
2018-03-11T04:31:45.274Z,26.43
2018-03-11T04:34:14.478Z,22.33
2018-03-11T04:36:46.267Z,27.00
2018-03-11T04:39:13.280Z,25.83
2018-03-11T04:41:41.047Z,26.40
2018-03-11T04:44:08.667Z,24.57
2018-03-11T04:46:39.319Z,31.07
2018-03-11T04:51:46.397Z,28.53
2018-03-11T04:54:17.623Z,32.73
2018-03-11T04:56:49.171Z,27.13
2018-03-11T04:59:18.343Z,27.10
2018-03-11T05:01:48.976Z,30.70
2018-03-11T05:07:32.323Z,28.43
2018-03-11T05:10:06.793Z,28.90
2018-03-11T05:12:37.591Z,24.80
2018-03-11T05:15:06.374Z,27.57
2018-03-11T05:17:34.139Z,29.83
2018-03-11T05:23:53.136Z,26.73
2018-03-11T05:26:21.712Z,27.10
2018-03-11T05:31:48.088Z,29.17
2018-03-11T05:36:57.932Z,30.00
2018-03-11T05:39:26.114Z,28.27
2018-03-11T05:44:30.253Z,27.17
2018-03-11T05:46:58.318Z,26.77
2018-03-11T05:49:31.511Z,29.50
2018-03-11T05:52:01.011Z,27.13
2018-03-11T05:54:27.957Z,34.43
2018-03-11T05:59:52.365Z,69.03
2018-03-11T06:02:20.030Z,32.23
2018-03-11T06:04:53.629Z,26.40
2018-03-11T06:07:24.587Z,26.43
2018-03-11T06:09:51.619Z,26.57
2018-03-11T06:12:21.341Z,28.30
2018-03-11T06:14:50.126Z,23.30
2018-03-11T06:17:17.170Z,24.40
2018-03-11T06:19:50.770Z,19.50
2018-03-11T06:22:18.485Z,28.13
2018-03-11T06:24:50.694Z,22.60
2018-03-11T06:27:20.522Z,22.73
2018-03-11T06:29:50.236Z,21.23
2018-03-11T06:32:17.277Z,24.93
2018-03-11T06:34:46.687Z,18.97
2018-03-11T06:37:17.322Z,20.77
2018-03-11T06:39:44.421Z,18.90
2018-03-11T06:42:16.458Z,18.73
2018-03-11T06:44:49.517Z,24.40
2018-03-11T06:47:24.144Z,19.77
2018-03-11T06:50:01.114Z,18.87
2018-03-11T06:52:31.736Z,20.27
2018-03-11T06:54:58.703Z,18.57
2018-03-11T06:57:26.162Z,20.40
2018-03-11T06:59:53.619Z,23.33
2018-03-11T07:02:21.594Z,18.40
2018-03-11T07:04:55.910Z,61.70
2018-03-11T07:21:12.207Z,19.50
2018-03-11T07:23:39.256Z,21.93
2018-03-11T07:26:06.301Z,25.97
2018-03-11T07:28:33.453Z,19.70
2018-03-11T07:31:00.502Z,22.80
2018-03-11T07:33:27.652Z,21.20
2018-03-11T07:35:54.705Z,18.50
2018-03-11T07:38:21.749Z,19.63
2018-03-11T07:49:32.130Z,21.23
2018-03-11T07:52:00.358Z,53.53
2018-03-11T07:54:28.376Z,20.93
2018-03-11T07:56:55.363Z,35.03
2018-03-11T07:59:23.733Z,21.53
2018-03-11T08:01:55.503Z,21.20
2018-03-11T08:11:10.314Z,25.00
2018-03-11T08:13:37.364Z,25.87
2018-03-11T08:16:04.666Z,24.63
2018-03-11T08:18:32.995Z,29.17
2018-03-11T08:20:59.947Z,29.60
2018-03-11T08:23:29.175Z,29.87
2018-03-11T08:25:56.400Z,69.27
2018-03-11T08:28:23.956Z,146.90
2018-03-11T08:30:51.008Z,159.33
2018-03-11T08:33:18.051Z,157.27
2018-03-11T08:35:45.002Z,91.93
2018-03-11T08:38:12.045Z,53.07
2018-03-11T08:40:39.097Z,99.73
2018-03-11T08:43:06.148Z,85.50
2018-03-11T08:45:35.496Z,86.57
2018-03-11T08:48:02.800Z,90.30
2018-03-11T08:50:30.769Z,65.30
2018-03-11T08:52:57.716Z,51.40
2018-03-11T08:55:24.766Z,84.13
2018-03-11T08:57:51.820Z,94.27
2018-03-11T09:00:19.891Z,62.67
2018-03-11T09:02:47.188Z,53.90
2018-03-11T09:05:14.290Z,48.70
2018-03-11T09:07:41.363Z,37.40
2018-03-11T09:10:08.386Z,33.73
2018-03-11T09:12:36.567Z,43.43
2018-03-11T09:15:03.612Z,33.87
2018-03-11T09:17:30.659Z,40.47
2018-03-11T09:19:57.714Z,31.10
2018-03-11T09:22:24.608Z,37.73
2018-03-11T09:24:51.712Z,29.83
2018-03-11T09:27:19.674Z,30.43
2018-03-11T09:29:46.825Z,32.87
2018-03-11T09:32:13.874Z,33.50
2018-03-11T09:34:40.926Z,33.60
2018-03-11T09:37:07.968Z,40.23
2018-03-11T09:39:34.957Z,37.80
2018-03-11T09:42:01.963Z,33.33
2018-03-11T09:44:29.011Z,32.20
2018-03-11T09:46:56.374Z,26.20
2018-03-11T09:49:23.415Z,27.33
2018-03-11T09:51:51.596Z,23.37
2018-03-11T09:54:18.845Z,27.20
2018-03-11T09:56:47.636Z,29.97
2018-03-11T09:59:14.892Z,30.70
2018-03-11T10:01:42.350Z,29.43
2018-03-11T10:04:11.275Z,28.57
2018-03-11T10:06:38.497Z,26.10
2018-03-11T10:09:05.954Z,29.27
2018-03-11T10:11:33.509Z,24.03
2018-03-11T10:14:00.562Z,25.80
2018-03-11T10:16:27.607Z,26.27
2018-03-11T10:18:55.577Z,25.73
2018-03-11T10:21:22.630Z,26.30
2018-03-11T10:23:49.674Z,27.60
2018-03-11T11:02:24.567Z,21.70
2018-03-11T11:05:01.729Z,20.43
2018-03-11T11:07:32.587Z,23.83
2018-03-11T11:21:27.902Z,21.37
2018-03-11T11:40:28.931Z,13.57
2018-03-11T11:48:13.630Z,38.90
2018-03-11T11:50:41.626Z,27.53
2018-03-11T11:53:08.647Z,28.83
2018-03-11T11:55:35.602Z,54.13
2018-03-11T11:58:02.642Z,28.13
2018-03-11T12:00:29.692Z,19.13
2018-03-11T12:02:56.638Z,12.27
2018-03-11T12:05:23.588Z,18.67
2018-03-11T12:07:50.633Z,9.83
2018-03-11T12:10:17.690Z,13.77
2018-03-11T12:12:44.676Z,16.67
2018-03-11T12:15:11.677Z,11.60
2018-03-11T12:17:40.778Z,10.20
2018-03-11T12:20:08.132Z,15.80
2018-03-11T12:22:35.238Z,14.10
2018-03-11T12:25:04.177Z,23.23
2018-03-11T12:27:31.222Z,15.43
2018-03-11T12:29:58.273Z,16.20
2018-03-11T12:32:27.215Z,17.43
2018-03-11T12:34:54.206Z,24.00
2018-03-11T12:37:22.694Z,23.00
2018-03-11T12:39:54.215Z,13.67
2018-03-11T12:42:21.297Z,10.93
2018-03-11T12:44:48.852Z,15.03
2018-03-11T12:47:17.176Z,13.90
2018-03-11T12:49:44.289Z,13.23
2018-03-11T12:52:11.329Z,12.83
2018-03-11T12:54:38.376Z,15.30
2018-03-11T12:57:05.470Z,13.83
2018-03-11T12:59:32.586Z,10.90
2018-03-11T13:01:59.625Z,12.93
2018-03-11T13:04:26.673Z,13.97
2018-03-11T13:06:53.620Z,11.60
2018-03-11T13:09:22.688Z,13.37
2018-03-11T13:11:49.765Z,11.47
2018-03-11T13:14:16.812Z,13.00
2018-03-11T13:16:47.450Z,9.33
2018-03-11T13:19:15.405Z,11.80
2018-03-11T13:21:43.180Z,14.47
2018-03-11T13:24:25.698Z,12.60
2018-03-11T13:27:09.990Z,11.90
2018-03-11T13:29:50.373Z,11.67
2018-03-11T13:32:23.543Z,11.43
2018-03-11T13:35:09.421Z,11.53
2018-03-11T13:37:56.035Z,11.40
2018-03-11T13:40:38.478Z,10.10
2018-03-11T13:43:05.907Z,11.93
2018-03-11T13:45:39.265Z,11.03
2018-03-11T13:48:06.615Z,12.87
2018-03-11T13:50:33.971Z,12.53
2018-03-11T13:53:07.014Z,13.17
2018-03-11T13:55:34.136Z,13.77
2018-03-11T13:58:07.203Z,12.90
2018-03-11T14:00:35.169Z,26.20
2018-03-11T14:03:02.227Z,24.00
2018-03-11T14:05:30.930Z,24.47
2018-03-11T14:07:57.955Z,26.07
2018-03-11T14:10:25.172Z,29.93
2018-03-11T14:12:54.848Z,10.03
2018-03-11T14:15:21.864Z,29.10
2018-03-11T14:17:48.914Z,27.70
2018-03-11T14:20:15.966Z,26.43
2018-03-11T14:22:43.010Z,23.87
2018-03-11T14:25:10.058Z,19.53
2018-03-11T14:27:37.113Z,21.27
2018-03-11T14:30:04.156Z,21.50
2018-03-11T14:32:32.535Z,25.83
2018-03-11T14:35:01.330Z,28.60
2018-03-11T14:37:28.373Z,17.23
2018-03-11T14:39:55.524Z,23.23
2018-03-11T14:42:23.903Z,20.90
2018-03-11T14:44:50.949Z,24.73
2018-03-11T14:47:17.940Z,26.73
2018-03-11T14:49:45.000Z,27.20
2018-03-11T14:52:12.507Z,27.83
2018-03-11T14:54:39.558Z,25.27
2018-03-11T14:57:06.502Z,26.97
2018-03-11T14:59:33.456Z,21.53
2018-03-11T15:02:01.317Z,21.70
2018-03-11T15:04:28.370Z,22.03
2018-03-11T15:06:55.617Z,28.97
2018-03-11T15:09:22.672Z,26.90
2018-03-11T15:11:50.947Z,23.03
2018-03-11T15:14:17.996Z,33.60
2018-03-11T15:16:45.973Z,20.63
2018-03-11T15:19:13.017Z,21.03
2018-03-11T15:21:41.087Z,18.93
2018-03-11T15:24:08.036Z,15.57
2018-03-11T15:26:36.205Z,17.87
2018-03-11T15:29:03.263Z,20.13
2018-03-11T15:31:30.199Z,13.67
2018-03-11T15:33:58.174Z,7.87
2018-03-11T15:36:25.220Z,6.67
2018-03-11T15:38:52.265Z,11.10
2018-03-11T15:41:19.212Z,15.60
2018-03-11T15:43:46.363Z,11.27
2018-03-11T15:46:13.411Z,5.87
2018-03-11T15:48:40.561Z,7.97
2018-03-11T15:51:07.923Z,7.10
2018-03-11T15:53:34.865Z,8.27
2018-03-11T15:56:02.840Z,8.40
2018-03-11T15:58:31.110Z,12.90
2018-03-11T16:00:58.160Z,7.10
2018-03-11T16:03:25.109Z,7.90
2018-03-11T16:05:52.155Z,8.00
2018-03-11T16:08:19.208Z,14.70
2018-03-11T16:10:48.134Z,7.37
2018-03-11T16:13:15.143Z,7.93
2018-03-11T16:15:42.089Z,9.20
2018-03-11T16:18:09.140Z,6.13
2018-03-11T16:20:36.192Z,6.37
2018-03-11T16:23:03.235Z,7.40
2018-03-11T16:25:30.336Z,7.47
2018-03-11T16:27:58.401Z,8.53
2018-03-11T16:30:25.409Z,13.10
2018-03-11T16:32:52.452Z,15.40
2018-03-11T16:38:00.885Z,9.13
2018-03-11T16:40:27.934Z,13.37
2018-03-11T16:42:54.987Z,11.83
2018-03-11T16:45:22.031Z,14.90
2018-03-11T16:47:49.083Z,16.23
2018-03-11T16:50:17.056Z,13.43
2018-03-11T16:52:44.098Z,6.50
2018-03-11T16:55:11.454Z,22.73
2018-03-11T16:57:38.507Z,25.07
2018-03-11T17:00:05.551Z,12.77
2018-03-11T17:02:32.652Z,15.17
2018-03-11T17:04:59.653Z,9.53
2018-03-11T17:07:29.496Z,9.03
2018-03-11T17:09:56.817Z,11.20
2018-03-11T17:12:23.871Z,20.93
2018-03-11T17:14:50.914Z,5.93
2018-03-11T17:17:17.963Z,17.50
2018-03-11T17:19:44.946Z,8.30
2018-03-11T17:22:12.674Z,22.53
2018-03-11T17:24:40.032Z,15.90
2018-03-11T17:27:07.083Z,27.90
2018-03-11T17:29:34.025Z,21.97
2018-03-11T17:32:01.078Z,10.87
2018-03-11T17:34:28.634Z,30.57
2018-03-11T17:36:57.423Z,28.37
2018-03-11T17:39:25.084Z,21.33
2018-03-11T17:41:52.236Z,24.57
2018-03-11T17:44:19.290Z,29.30
2018-03-11T17:46:47.870Z,18.43
2018-03-11T17:49:14.918Z,33.33
2018-03-11T17:51:41.972Z,19.23
2018-03-11T17:54:10.141Z,22.40
2018-03-11T17:56:37.369Z,14.40
2018-03-11T17:59:04.279Z,23.67
2018-03-11T18:01:32.622Z,23.43
2018-03-11T18:04:01.234Z,20.17
2018-03-11T18:06:28.258Z,18.67
2018-03-11T18:08:56.451Z,16.03
2018-03-11T18:11:23.578Z,10.17
2018-03-11T18:13:50.633Z,23.13
2018-03-11T18:16:17.678Z,21.87
2018-03-11T18:18:44.953Z,16.23
2018-03-11T18:21:12.002Z,24.07
2018-03-11T18:23:39.024Z,32.37
2018-03-11T18:26:07.097Z,12.70
2018-03-11T18:28:34.042Z,18.47
2018-03-11T18:31:01.092Z,7.87
2018-03-11T18:33:28.144Z,19.40
2018-03-11T18:35:55.190Z,11.47
2018-03-11T18:38:22.240Z,12.33
2018-03-11T18:40:49.292Z,14.17
2018-03-11T18:43:17.461Z,11.80
2018-03-11T18:45:44.611Z,12.70
2018-03-11T18:48:11.666Z,16.80
2018-03-11T18:50:39.015Z,15.13
2018-03-11T18:53:06.064Z,17.30
2018-03-11T18:55:33.010Z,14.90
2018-03-11T19:00:42.473Z,22.20
2018-03-11T19:03:09.516Z,20.77
2018-03-11T19:05:36.569Z,21.77
2018-03-11T19:08:03.562Z,18.00
2018-03-11T19:10:30.559Z,17.53
2018-03-11T19:12:57.613Z,13.43
2018-03-11T19:15:25.272Z,11.33
2018-03-11T19:18:12.857Z,26.60
2018-03-11T19:21:02.892Z,19.73
2018-03-11T19:23:32.437Z,24.70
2018-03-11T19:25:59.449Z,19.00
2018-03-11T19:28:26.490Z,14.00
2018-03-11T19:30:55.791Z,26.70
2018-03-11T19:33:22.840Z,15.23
2018-03-11T19:35:49.895Z,21.53
2018-03-11T19:38:17.247Z,15.20
2018-03-11T19:40:45.166Z,22.17
2018-03-11T19:43:12.471Z,25.17
2018-03-11T19:45:40.541Z,14.57
2018-03-11T19:48:07.590Z,15.23
2018-03-11T19:50:34.643Z,17.77
2018-03-11T19:53:01.685Z,15.27
2018-03-11T19:55:29.144Z,14.90
2018-03-11T19:57:56.194Z,15.50
2018-03-11T20:00:24.012Z,11.80
2018-03-11T20:02:51.212Z,13.43
2018-03-11T20:05:18.566Z,15.90
2018-03-11T20:07:45.515Z,7.57
2018-03-11T20:10:12.772Z,13.77
2018-03-11T20:12:40.430Z,12.30
2018-03-11T20:15:07.381Z,12.33
2018-03-11T20:17:34.424Z,17.37
2018-03-11T20:20:01.472Z,13.53
2018-03-11T20:22:28.420Z,25.67
2018-03-11T20:24:57.710Z,19.20
2018-03-11T20:27:24.679Z,15.27
2018-03-11T20:29:51.661Z,13.37
2018-03-11T20:32:18.666Z,24.87
2018-03-11T20:34:45.914Z,16.87
2018-03-11T20:37:14.503Z,22.20
2018-03-11T20:39:41.547Z,9.80
2018-03-11T20:42:08.548Z,10.60
2018-03-11T20:44:35.543Z,33.87
2018-03-11T20:47:02.801Z,21.73
2018-03-11T20:49:33.232Z,24.47
2018-03-11T20:52:01.096Z,41.03
2018-03-11T20:54:28.139Z,24.10
2018-03-11T20:56:56.463Z,44.17
2018-03-11T20:59:23.470Z,36.27
2018-03-11T21:01:50.824Z,37.90
2018-03-11T21:04:18.675Z,25.47
2018-03-11T21:06:45.637Z,29.30
2018-03-11T21:09:12.690Z,20.03
2018-03-11T21:11:39.736Z,21.70
2018-03-11T21:14:07.605Z,25.87
2018-03-11T21:16:34.647Z,11.57
2018-03-11T21:19:02.927Z,18.37
2018-03-11T21:21:29.984Z,34.73
2018-03-11T21:23:57.021Z,23.40
2018-03-11T21:26:25.136Z,22.70
2018-03-11T21:28:52.352Z,33.63
2018-03-11T21:31:19.909Z,24.13
2018-03-11T21:33:46.993Z,29.53
2018-03-11T21:36:14.005Z,18.90
2018-03-11T21:38:42.384Z,29.93
2018-03-11T21:41:10.564Z,36.70
2018-03-11T21:43:37.812Z,24.13
2018-03-11T21:46:04.865Z,23.87
2018-03-11T21:48:31.909Z,26.90
2018-03-11T21:51:00.089Z,26.90
2018-03-11T21:53:27.133Z,28.00
2018-03-11T21:55:54.181Z,29.27
2018-03-11T21:58:21.271Z,28.10
2018-03-11T22:00:48.795Z,28.53
2018-03-11T22:03:17.170Z,28.63
2018-03-11T22:05:44.255Z,27.83
2018-03-11T22:08:12.296Z,33.47
2018-03-11T22:10:39.340Z,15.57
2018-03-11T22:13:06.410Z,38.17
2018-03-11T22:15:34.564Z,30.20
2018-03-11T22:18:01.715Z,25.60
2018-03-11T22:20:29.684Z,23.23
2018-03-11T22:22:56.738Z,36.47
2018-03-11T22:25:23.781Z,30.57
2018-03-11T22:27:51.754Z,12.57
2018-03-11T22:30:18.805Z,19.90
2018-03-11T22:32:45.746Z,23.63
2018-03-11T22:35:12.896Z,29.47
2018-03-11T22:37:39.950Z,40.83
2018-03-11T22:40:07.302Z,34.60
2018-03-11T22:42:34.350Z,41.53
2018-03-11T22:45:01.296Z,38.37
2018-03-11T22:47:28.346Z,25.30
2018-03-11T22:49:55.400Z,11.93
2018-03-11T22:52:24.591Z,34.23
2018-03-11T22:54:51.640Z,20.93
2018-03-11T22:57:19.308Z,24.10
2018-03-11T22:59:46.351Z,24.60
2018-03-11T23:02:14.731Z,23.30
2018-03-11T23:04:42.302Z,24.53
2018-03-11T23:07:09.340Z,16.43
2018-03-11T23:09:36.389Z,9.33
2018-03-11T23:12:04.563Z,15.30
2018-03-11T23:14:32.843Z,11.10
2018-03-11T23:17:01.432Z,12.87
2018-03-11T23:19:28.583Z,14.17
2018-03-11T23:21:57.270Z,17.27
2018-03-11T23:24:24.312Z,15.87
2018-03-11T23:26:52.589Z,26.43
2018-03-11T23:29:19.644Z,28.47
2018-03-11T23:31:47.916Z,20.27
2018-03-11T23:34:14.964Z,26.50
2018-03-11T23:36:42.018Z,18.77
2018-03-11T23:39:09.006Z,22.40
2018-03-11T23:41:37.030Z,15.37
2018-03-11T23:44:04.393Z,32.80
2018-03-11T23:46:31.434Z,15.90
2018-03-11T23:48:58.483Z,12.83
2018-03-11T23:51:27.074Z,23.03
2018-03-11T23:53:55.347Z,9.63
2018-03-11T23:56:22.298Z,26.30
2018-03-11T23:58:49.360Z,17.73
